Time;durP1;ratioP1;P1;durP2;ratioP2;P2;SDS_P1;SDS_P2;PMS_P1;PMS_P2;Temp;Humidity;BMP_temperature;BMP_pressure;BME280_temperature;BME280_humidity;BME280_pressure;Samples;Min_cycle;Max_cycle;Signal;HPM_P1;HPM_P2
2021/12/19 00:01:10;;;;;;;6.77;5.70;;;;;;;3.23;60.67;95120.47;5045838;28;20521;-75
2021/12/19 00:03:57;;;;;;;6.90;6.20;;;;;;;3.13;60.39;95114.50;5045903;28;20159;-75
2021/12/19 00:09:07;;;;;;;7.73;6.60;;;;;;;3.26;60.57;95120.19;5059205;28;20412;-75
2021/12/19 00:11:33;;;;;;;7.40;6.70;;;;;;;3.17;61.39;95108.09;5066964;28;20417;-75
2021/12/19 00:14:00;;;;;;;7.10;5.60;;;;;;;3.41;60.48;95104.25;5063870;28;20158;-75
2021/12/19 00:16:26;;;;;;;6.40;5.80;;;;;;;3.61;59.77;95108.41;5053088;28;20434;-76
2021/12/19 00:18:52;;;;;;;6.33;5.77;;;;;;;3.21;60.89;95111.22;5053587;28;20460;-76
2021/12/19 00:21:20;;;;;;;6.70;6.00;;;;;;;3.43;60.17;95104.91;5059868;28;20481;-75
2021/12/19 00:23:47;;;;;;;9.57;6.43;;;;;;;3.18;60.83;95109.69;5068940;28;20472;-75
2021/12/19 00:26:15;;;;;;;5.90;5.40;;;;;;;3.40;60.40;95102.63;5070934;28;20417;-75
2021/12/19 00:28:41;;;;;;;5.90;5.23;;;;;;;3.35;59.70;95091.88;5071136;28;20465;-75
2021/12/19 00:31:07;;;;;;;8.40;6.50;;;;;;;3.42;60.53;95093.75;5071832;28;20432;-76
2021/12/19 00:33:33;;;;;;;6.03;4.40;;;;;;;3.18;60.95;95095.97;5070821;28;20429;-75
2021/12/19 00:35:59;;;;;;;7.17;5.27;;;;;;;2.62;62.37;95094.84;5068133;28;20186;-75
2021/12/19 00:38:25;;;;;;;6.33;5.13;;;;;;;2.67;63.23;95095.28;5067087;28;20186;-75
2021/12/19 00:40:51;;;;;;;5.50;4.10;;;;;;;3.18;61.57;95098.56;5048551;28;20426;-75
2021/12/19 00:43:54;;;;;;;6.93;6.23;;;;;;;2.78;62.11;95102.91;5061140;28;20504;-75
2021/12/19 00:46:12;;;;;;;5.67;5.27;;;;;;;3.42;60.66;95098.94;5064868;28;20427;-75
2021/12/19 00:48:40;;;;;;;5.73;5.23;;;;;;;2.96;62.14;95097.88;5067747;28;20428;-75
2021/12/19 00:51:07;;;;;;;7.67;6.87;;;;;;;3.06;61.62;95092.72;5047248;28;20398;-74
2021/12/19 00:53:33;;;;;;;8.50;7.60;;;;;;;2.79;62.70;95089.03;5049802;28;20425;-75
2021/12/19 00:55:59;;;;;;;11.63;7.17;;;;;;;2.77;62.48;95083.19;5051968;28;20429;-75
2021/12/19 00:58:24;;;;;;;7.40;6.70;;;;;;;3.11;61.41;95082.75;5064479;28;20935;-75
2021/12/19 01:00:50;;;;;;;8.07;6.30;;;;;;;3.03;61.62;95077.47;5062680;28;20183;-76
2021/12/19 01:03:16;;;;;;;8.37;6.50;;;;;;;3.12;61.28;95072.28;5053060;28;20274;-75
2021/12/19 01:05:42;;;;;;;7.73;6.80;;;;;;;2.88;62.09;95069.31;5057164;28;20409;-75
2021/12/19 01:08:12;;;;;;;5.77;5.17;;;;;;;2.49;62.62;95064.94;5066482;28;20421;-75
2021/12/19 01:10:40;;;;;;;8.57;6.00;;;;;;;2.83;62.56;95067.13;5067113;28;20397;-76
2021/12/19 01:13:05;;;;;;;7.50;6.80;;;;;;;2.98;61.59;95058.97;5047965;28;20437;-76
2021/12/19 01:15:31;;;;;;;8.20;7.33;;;;;;;3.02;61.60;95070.69;5044167;28;20436;-76
2021/12/19 01:17:57;;;;;;;5.57;5.03;;;;;;;2.82;62.15;95067.28;5046148;28;20257;-75
2021/12/19 01:20:25;;;;;;;7.80;6.47;;;;;;;2.69;62.31;95063.19;5046225;28;20531;-76
2021/12/19 01:22:52;;;;;;;8.50;7.60;;;;;;;2.85;62.64;95059.25;5048365;28;20512;-76
2021/12/19 01:25:18;;;;;;;7.73;7.03;;;;;;;2.49;63.15;95058.97;5066050;28;20401;-76
2021/12/19 01:27:43;;;;;;;8.33;7.23;;;;;;;2.90;62.65;95057.91;5064992;28;20418;-76
2021/12/19 01:30:10;;;;;;;7.27;6.50;;;;;;;3.30;60.94;95056.91;5065943;28;20417;-76
2021/12/19 01:32:37;;;;;;;8.53;7.63;;;;;;;3.36;60.95;95046.91;5064775;28;20174;-76
2021/12/19 01:35:06;;;;;;;7.00;6.40;;;;;;;3.77;60.06;95042.31;5067041;28;20413;-76
2021/12/19 01:37:32;;;;;;;8.63;7.70;;;;;;;3.27;61.43;95043.41;5065559;28;20412;-76
2021/12/19 01:39:58;;;;;;;8.20;7.50;;;;;;;3.09;61.92;95043.28;5066567;28;20531;-75
2021/12/19 01:42:33;;;;;;;6.97;6.27;;;;;;;3.03;61.66;95036.91;5066830;28;20273;-75
2021/12/19 01:44:59;;;;;;;6.00;5.40;;;;;;;3.40;60.73;95031.00;5071806;28;20430;-75
2021/12/19 01:47:25;;;;;;;8.77;7.40;;;;;;;3.68;60.15;95031.88;5054503;28;20425;-75
2021/12/19 01:49:51;;;;;;;6.70;5.83;;;;;;;3.26;61.28;95029.69;5043544;28;20439;-75
2021/12/19 01:52:17;;;;;;;7.47;6.60;;;;;;;3.69;60.56;95027.50;5091962;28;20175;-75
2021/12/19 01:54:44;;;;;;;7.30;6.47;;;;;;;3.51;60.81;95024.84;5065703;28;20242;-75
2021/12/19 01:57:10;;;;;;;7.97;7.07;;;;;;;3.37;60.75;95028.69;5066283;28;20486;-75
2021/12/19 01:59:35;;;;;;;6.83;6.23;;;;;;;3.55;60.53;95026.19;5066592;28;20452;-75
2021/12/19 02:02:01;;;;;;;7.13;5.80;;;;;;;3.29;60.37;95021.63;5065989;28;20669;-75
2021/12/19 02:04:30;;;;;;;8.90;7.87;;;;;;;3.79;60.31;95022.28;5066304;28;20621;-75
2021/12/19 02:06:57;;;;;;;7.53;6.30;;;;;;;3.17;61.90;95011.56;5066433;28;20178;-75
2021/12/19 02:09:24;;;;;;;7.73;6.97;;;;;;;2.96;62.45;95014.34;5082506;28;20498;-76
2021/12/19 02:11:49;;;;;;;6.80;6.20;;;;;;;3.47;61.18;95013.97;5073986;28;20429;-76
2021/12/19 02:14:15;;;;;;;9.17;8.33;;;;;;;2.92;62.58;95009.47;5065340;28;20471;-76
2021/12/19 02:16:41;;;;;;;6.20;5.60;;;;;;;2.72;62.97;95002.69;5045615;28;20179;-75
2021/12/19 02:19:07;;;;;;;6.63;6.10;;;;;;;3.22;61.33;95002.44;5044385;28;20199;-75
2021/12/19 02:21:33;;;;;;;7.07;6.37;;;;;;;3.18;61.36;95000.28;5047318;28;20481;-75
2021/12/19 02:24:00;;;;;;;6.50;5.87;;;;;;;3.08;61.56;95003.72;5050712;28;20500;-76
2021/12/19 02:26:25;;;;;;;7.07;6.47;;;;;;;3.40;60.99;95002.53;5045724;28;20182;-76
2021/12/19 02:28:51;;;;;;;6.27;5.57;;;;;;;3.43;60.65;95006.63;5045589;28;20937;-75
2021/12/19 02:31:17;;;;;;;9.13;7.33;;;;;;;3.11;62.29;94994.84;5051665;28;20194;-76
2021/12/19 02:33:55;;;;;;;8.47;7.60;;;;;;;3.36;62.19;95000.38;5065338;28;20183;-76
2021/12/19 02:36:29;;;;;;;7.23;6.30;;;;;;;3.54;61.13;94997.88;5064756;28;20420;-76
2021/12/19 02:50:11;;;;;;;11.33;8.50;;;;;;;3.13;63.17;94995.56;5049578;28;20966;-74
2021/12/19 02:52:37;;;;;;;8.70;7.33;;;;;;;2.76;64.55;94993.69;5047324;28;20452;-75
2021/12/19 02:55:04;;;;;;;10.93;9.70;;;;;;;2.76;65.02;94991.09;5054133;28;20511;-74
2021/12/19 02:57:30;;;;;;;10.52;9.00;;;;;;;3.02;63.45;94983.59;5068747;28;20163;-75
2021/12/19 02:59:55;;;;;;;6.77;6.17;;;;;;;2.56;64.80;94986.91;5068295;28;20277;-75
2021/12/19 03:02:22;;;;;;;8.83;8.03;;;;;;;2.85;64.12;94987.69;5069320;28;20166;-75
2021/12/19 03:04:58;;;;;;;8.30;7.13;;;;;;;2.78;64.17;94983.22;5067840;28;20213;-75
2021/12/19 03:07:25;;;;;;;8.40;7.10;;;;;;;2.90;63.47;94967.44;5068371;28;20405;-75
2021/12/19 03:10:13;;;;;;;10.97;8.10;;;;;;;2.65;64.74;94981.72;5069646;28;20417;-74
2021/12/19 03:17:58;;;;;;;9.33;8.40;;;;;;;2.59;64.50;94977.13;5049041;28;20695;-75
2021/12/19 03:20:28;;;;;;;7.90;6.87;;;;;;;2.71;63.65;94972.63;5066856;28;20539;-75
2021/12/19 03:22:54;;;;;;;10.02;7.35;;;;;;;2.82;63.45;94977.63;5089322;28;20423;-75
2021/12/19 03:25:20;;;;;;;5.00;4.60;;;;;;;2.57;63.85;94976.44;5089097;28;20162;-75
2021/12/19 03:27:46;;;;;;;6.10;5.67;;;;;;;2.50;63.81;94983.94;5052865;28;20755;-75
2021/12/19 03:30:12;;;;;;;6.40;5.70;;;;;;;2.71;63.11;94975.19;5063705;28;20412;-75
2021/12/19 03:32:38;;;;;;;8.57;6.77;;;;;;;2.70;63.08;94981.34;5068820;28;20646;-75
2021/12/19 03:35:05;;;;;;;8.00;6.20;;;;;;;2.74;62.63;94974.94;5067373;28;20433;-75
2021/12/19 03:37:31;;;;;;;7.70;7.10;;;;;;;2.96;62.49;94967.81;5052436;28;20440;-75
2021/12/19 03:40:23;;;;;;;8.17;5.97;;;;;;;2.48;63.27;94965.16;5047289;28;20461;-75
2021/12/19 03:42:45;;;;;;;7.37;6.67;;;;;;;2.17;64.63;94972.22;5048358;28;20210;-75
2021/12/19 03:45:17;;;;;;;9.50;7.63;;;;;;;2.58;63.13;94964.34;5060990;28;20491;-75
2021/12/19 03:47:44;;;;;;;9.70;7.25;;;;;;;2.67;62.92;94963.50;5063427;28;20182;-75
2021/12/19 03:50:12;;;;;;;6.80;6.30;;;;;;;2.51;63.23;94961.50;5046468;28;20175;-75
2021/12/19 03:52:38;;;;;;;9.50;7.67;;;;;;;2.39;64.14;94963.41;5048674;28;20163;-75
2021/12/19 03:55:05;;;;;;;7.33;6.63;;;;;;;2.17;63.95;94954.16;5067275;28;20417;-76
2021/12/19 03:57:30;;;;;;;6.73;6.10;;;;;;;2.74;62.40;94954.25;5066497;28;21054;-76
2021/12/19 03:59:56;;;;;;;8.93;6.73;;;;;;;2.66;62.57;94952.38;5067577;28;20456;-75
2021/12/19 04:02:26;;;;;;;6.13;5.53;;;;;;;2.24;63.08;94947.50;5063982;28;20163;-75
2021/12/19 04:04:53;;;;;;;7.43;6.70;;;;;;;2.20;63.51;94945.31;5047219;28;20480;-76
2021/12/19 04:07:19;;;;;;;7.40;6.10;;;;;;;2.36;62.50;94940.44;5079089;28;20440;-76
2021/12/19 04:09:44;;;;;;;7.20;6.07;;;;;;;2.19;63.33;94941.13;5047035;28;20458;-75
2021/12/19 04:12:10;;;;;;;9.03;6.90;;;;;;;2.21;62.76;94940.00;5046658;28;20175;-76
2021/12/19 04:14:36;;;;;;;7.70;5.63;;;;;;;2.52;61.84;94940.69;5047165;28;20288;-75
2021/12/19 04:17:02;;;;;;;6.33;5.73;;;;;;;2.29;61.48;94934.19;5046805;28;20595;-75
2021/12/19 04:19:28;;;;;;;5.18;3.85;;;;;;;2.17;62.44;94930.09;5046180;28;20195;-75
2021/12/19 04:21:55;;;;;;;4.20;3.28;;;;;;;2.10;62.52;94925.47;5065055;28;20694;-75
2021/12/19 04:24:20;;;;;;;7.75;6.13;;;;;;;2.31;61.04;94922.75;5066767;28;20178;-75
2021/12/19 04:26:46;;;;;;;7.13;6.43;;;;;;;2.56;61.12;94924.91;5066799;28;20170;-75
2021/12/19 04:29:11;;;;;;;6.50;5.90;;;;;;;2.49;60.40;94924.66;5055981;28;20222;-75
2021/12/19 04:31:37;;;;;;;13.77;5.97;;;;;;;2.77;59.49;94917.81;5066542;28;20174;-75
2021/12/19 04:34:04;;;;;;;9.40;7.07;;;;;;;2.62;60.52;94920.03;5067026;28;20175;-75
2021/12/19 04:36:34;;;;;;;9.25;6.18;;;;;;;2.88;59.48;94909.91;5065407;28;20177;-75
2021/12/19 04:42:14;;;;;;;6.40;5.90;;;;;;;2.96;59.59;94916.13;5066800;28;20201;-75
2021/12/19 04:50:51;;;;;;;6.65;6.10;;;;;;;3.07;58.96;94919.38;5066133;28;20475;-75
2021/12/19 04:58:50;;;;;;;11.10;6.13;;;;;;;2.92;59.45;94890.56;5053434;28;20187;-75
2021/12/19 05:04:09;;;;;;;6.50;5.90;;;;;;;2.90;59.50;94896.81;5046172;28;20179;-75
2021/12/19 05:06:14;;;;;;;8.98;5.88;;;;;;;2.72;60.07;94894.16;5041859;28;20275;-75
2021/12/19 05:14:06;;;;;;;6.70;4.50;;;;;;;2.87;59.77;94905.69;5043948;28;20677;-75
2021/12/19 05:14:44;;;;;;;5.80;3.90;;;;;;;2.78;60.44;94906.50;5049531;28;20261;-75
2021/12/19 05:17:16;;;;;;;7.07;6.00;;;;;;;2.90;59.93;94907.16;5065517;28;20210;-76
2021/12/19 05:20:03;;;;;;;7.45;6.57;;;;;;;3.00;59.38;94907.13;5064097;28;20230;-75
2021/12/19 05:22:31;;;;;;;5.38;4.88;;;;;;;3.07;58.90;94909.03;5065502;28;20228;-75
2021/12/19 05:25:14;;;;;;;9.88;6.45;;;;;;;2.97;59.60;94907.44;5065671;28;20166;-75
2021/12/19 05:27:42;;;;;;;8.50;6.18;;;;;;;3.21;59.10;94899.19;5065871;28;20154;-73
2021/12/19 05:30:08;;;;;;;7.63;6.05;;;;;;;3.15;59.69;94895.41;5065275;28;20181;-73
2021/12/19 05:32:34;;;;;;;10.80;5.40;;;;;;;2.67;60.37;94902.31;5065241;28;20167;-73
2021/12/19 05:34:59;;;;;;;5.60;5.20;;;;;;;2.86;60.37;94903.22;5063889;28;20815;-73
2021/12/19 05:45:37;;;;;;;9.27;6.20;;;;;;;3.06;59.85;94886.72;5065218;28;20170;-73
2021/12/19 05:48:03;;;;;;;7.50;6.80;;;;;;;3.30;59.50;94895.72;5065415;28;20420;-73
2021/12/19 05:50:28;;;;;;;8.53;7.10;;;;;;;3.38;58.61;94892.41;5063733;28;20618;-73
2021/12/19 05:52:53;;;;;;;6.57;5.90;;;;;;;3.17;59.91;94898.66;5065009;28;20193;-74
2021/12/19 05:55:20;;;;;;;8.03;7.10;;;;;;;3.00;60.02;94896.78;5064792;28;20174;-74
2021/12/19 05:57:46;;;;;;;13.00;8.07;;;;;;;2.88;60.40;94890.97;5064729;28;20638;-73
2021/12/19 06:00:15;;;;;;;7.67;6.97;;;;;;;2.79;60.58;94892.66;5063345;28;20471;-73
2021/12/19 06:02:41;;;;;;;9.48;6.43;;;;;;;2.93;60.25;94889.59;5063932;28;20236;-73
2021/12/19 06:05:08;;;;;;;9.67;6.50;;;;;;;2.73;60.95;94890.59;5064565;28;20170;-73
2021/12/19 06:07:34;;;;;;;9.63;7.63;;;;;;;2.78;60.99;94887.63;5063928;28;20190;-73
2021/12/19 06:10:00;;;;;;;6.17;5.20;;;;;;;2.63;61.03;94889.81;5064806;28;20174;-73
2021/12/19 06:12:25;;;;;;;12.67;10.50;;;;;;;2.85;60.45;94874.00;5066648;28;20166;-73
2021/12/19 06:14:51;;;;;;;12.67;9.07;;;;;;;3.20;59.99;94876.84;5068908;28;20174;-74
2021/12/19 06:17:17;;;;;;;12.33;8.70;;;;;;;2.87;60.55;94872.09;5068866;28;20466;-73
2021/12/19 06:19:42;;;;;;;11.57;6.40;;;;;;;2.86;60.50;94865.28;5066932;28;20277;-73
2021/12/19 06:22:08;;;;;;;13.50;9.03;;;;;;;2.97;60.59;94866.88;5048623;28;20166;-73
2021/12/19 06:24:34;;;;;;;11.27;8.50;;;;;;;3.14;60.34;94860.13;5049273;28;20175;-73
2021/12/19 06:27:01;;;;;;;10.15;8.40;;;;;;;3.01;60.41;94859.66;5050055;28;20185;-73
2021/12/19 06:29:28;;;;;;;11.60;9.30;;;;;;;3.15;60.30;94851.44;5068929;28;20265;-73
2021/12/19 06:31:54;;;;;;;14.63;9.57;;;;;;;3.19;59.79;94854.53;5068225;28;20167;-74
2021/12/19 06:34:20;;;;;;;12.30;8.05;;;;;;;2.93;60.12;94848.25;5068364;28;20174;-73
2021/12/19 06:36:45;;;;;;;11.50;8.60;;;;;;;2.86;59.90;94849.75;5061287;28;20179;-73
2021/12/19 06:39:11;;;;;;;8.00;6.50;;;;;;;3.00;60.07;94847.66;5047674;28;20203;-73
2021/12/19 06:41:36;;;;;;;12.23;9.27;;;;;;;3.16;59.59;94850.47;5048646;28;20175;-74
2021/12/19 06:44:06;;;;;;;13.57;9.33;;;;;;;2.92;59.77;94843.22;5046883;28;20185;-73
2021/12/19 06:46:32;;;;;;;11.52;6.15;;;;;;;2.71;60.73;94839.09;5059455;28;20181;-75
2021/12/19 06:48:58;;;;;;;10.07;8.25;;;;;;;3.02;59.68;94846.59;5066283;28;20240;-73
2021/12/19 06:51:24;;;;;;;10.07;8.03;;;;;;;2.75;60.77;94839.59;5066533;28;20204;-73
2021/12/19 06:53:49;;;;;;;12.40;9.83;;;;;;;3.16;59.31;94834.97;5066503;28;20437;-74
2021/12/19 06:56:24;;;;;;;10.70;7.93;;;;;;;3.30;58.52;94837.06;5068194;28;20570;-74
2021/12/19 06:58:49;;;;;;;9.60;8.20;;;;;;;3.55;57.99;94839.91;5067016;28;20604;-74
2021/12/19 07:01:15;;;;;;;9.70;8.70;;;;;;;3.16;59.33;94840.13;5068091;28;20179;-73
2021/12/19 07:03:40;;;;;;;11.83;8.90;;;;;;;2.81;59.89;94831.31;5071056;28;20247;-73
2021/12/19 07:06:06;;;;;;;8.33;7.53;;;;;;;2.87;59.82;94841.06;5086414;28;20173;-73
2021/12/19 07:08:31;;;;;;;13.80;9.90;;;;;;;3.44;58.67;94837.53;5087822;28;20184;-73
2021/12/19 07:10:57;;;;;;;11.33;8.10;;;;;;;3.70;57.84;94846.22;5086299;28;20242;-73
2021/12/19 07:13:22;;;;;;;11.37;7.77;;;;;;;3.64;57.89;94841.63;5077340;28;20187;-74
2021/12/19 07:15:49;;;;;;;11.70;8.10;;;;;;;3.88;57.45;94840.22;5067481;28;20167;-73
2021/12/19 07:18:15;;;;;;;8.00;6.90;;;;;;;3.55;58.01;94837.31;5067712;28;20189;-73
2021/12/19 07:20:42;;;;;;;11.30;8.97;;;;;;;4.16;56.58;94838.34;5065472;28;20500;-73
2021/12/19 07:23:17;;;;;;;11.43;10.23;;;;;;;3.99;56.58;94837.41;5065298;28;20201;-73
2021/12/19 07:25:43;;;;;;;10.00;9.00;;;;;;;4.29;55.65;94828.41;5066006;28;20417;-74
2021/12/19 07:28:09;;;;;;;9.37;7.73;;;;;;;3.89;56.57;94828.91;5065679;28;20428;-74
2021/12/19 07:30:37;;;;;;;11.83;8.80;;;;;;;3.95;56.55;94830.09;5066981;28;20162;-73
2021/12/19 07:33:07;;;;;;;12.07;7.17;;;;;;;4.13;55.54;94824.88;5065695;28;20436;-74
2021/12/19 07:35:37;;;;;;;12.00;8.77;;;;;;;3.85;56.68;94827.56;5067347;28;20408;-73
2021/12/19 07:38:05;;;;;;;12.53;8.77;;;;;;;4.32;55.36;94824.69;5067206;28;20443;-73
2021/12/19 07:40:36;;;;;;;10.27;8.07;;;;;;;3.96;56.39;94827.34;5065081;28;20467;-73
2021/12/19 07:43:10;;;;;;;10.10;8.57;;;;;;;3.74;56.59;94820.03;5065824;28;20523;-73
2021/12/19 07:45:36;;;;;;;7.37;5.50;;;;;;;3.87;56.38;94826.47;5065567;28;20416;-73
2021/12/19 07:48:03;;;;;;;13.37;7.80;;;;;;;3.88;55.80;94829.88;5066631;28;20753;-73
2021/12/19 07:50:29;;;;;;;9.43;7.00;;;;;;;4.35;55.35;94819.22;5065235;28;20742;-73
2021/12/19 07:52:56;;;;;;;9.20;5.80;;;;;;;4.02;56.05;94816.41;5065549;28;20463;-73
2021/12/19 07:55:23;;;;;;;8.47;7.20;;;;;;;4.16;55.81;94828.00;5065359;28;20417;-73
2021/12/19 07:57:49;;;;;;;10.73;9.20;;;;;;;3.96;56.44;94827.34;5066652;28;20425;-73
2021/12/19 08:00:16;;;;;;;11.30;8.70;;;;;;;4.48;55.14;94819.66;5065262;28;20455;-73
2021/12/19 08:02:43;;;;;;;10.97;6.80;;;;;;;4.41;55.32;94816.03;5065428;28;20181;-73
2021/12/19 08:05:09;;;;;;;12.17;8.03;;;;;;;4.32;55.41;94816.13;5066567;28;20416;-73
2021/12/19 08:07:38;;;;;;;12.10;8.63;;;;;;;4.23;55.62;94810.06;5061730;28;20414;-73
2021/12/19 08:11:39;;;;;;;10.30;7.87;;;;;;;4.68;54.60;94796.09;5044835;28;20418;-73
2021/12/19 08:13:00;;;;;;;12.30;8.53;;;;;;;4.37;55.04;94791.41;5046658;28;20438;-73
2021/12/19 08:15:26;;;;;;;8.87;6.90;;;;;;;3.65;56.44;94781.13;5045281;28;20418;-73
2021/12/19 08:17:51;;;;;;;7.50;6.70;;;;;;;4.23;55.49;94772.06;5063214;28;20440;-73
2021/12/19 08:20:17;;;;;;;11.10;5.97;;;;;;;4.38;54.45;94768.88;5066479;28;20223;-73
2021/12/19 08:22:44;;;;;;;6.70;6.00;;;;;;;4.22;55.16;94769.59;5065100;28;20553;-73
2021/12/19 08:25:10;;;;;;;9.00;6.90;;;;;;;4.42;54.58;94758.06;5063705;28;20445;-73
2021/12/19 08:27:37;;;;;;;8.40;7.50;;;;;;;4.25;55.03;94769.28;5046053;28;20422;-73
2021/12/19 08:30:05;;;;;;;10.17;8.07;;;;;;;4.58;53.97;94748.75;5044850;28;20949;-73
2021/12/19 08:32:31;;;;;;;9.83;8.10;;;;;;;4.70;53.83;94752.69;5045765;28;20412;-74
2021/12/19 08:34:56;;;;;;;12.63;9.07;;;;;;;4.85;53.48;94748.53;5046171;28;20422;-74
2021/12/19 08:37:22;;;;;;;11.10;8.80;;;;;;;5.32;52.28;94743.81;5046021;28;20175;-73
2021/12/19 08:39:47;;;;;;;9.33;6.73;;;;;;;4.34;53.83;94752.03;5077603;28;20275;-73
2021/12/19 08:42:13;;;;;;;14.83;9.57;;;;;;;4.29;55.42;94749.91;5044573;28;20214;-73
2021/12/19 08:44:39;;;;;;;8.73;6.97;;;;;;;4.19;55.24;94759.53;5045994;28;20183;-74
2021/12/19 08:47:05;;;;;;;11.80;6.40;;;;;;;4.22;54.72;94761.84;5045360;28;20421;-73
2021/12/19 08:49:31;;;;;;;9.67;8.23;;;;;;;4.31;55.19;94747.97;5077768;28;20434;-73
2021/12/19 08:51:57;;;;;;;10.67;7.73;;;;;;;4.38;54.85;94754.19;5061132;28;20501;-73
2021/12/19 08:54:22;;;;;;;10.80;8.23;;;;;;;4.26;54.68;94760.56;5069870;28;20241;-73
2021/12/19 08:56:49;;;;;;;10.73;8.63;;;;;;;4.63;54.21;94759.44;5065827;28;20285;-73
2021/12/19 08:59:15;;;;;;;7.10;6.47;;;;;;;4.49;54.06;94761.66;5064320;28;20221;-73
2021/12/19 09:01:41;;;;;;;9.50;8.47;;;;;;;4.63;53.92;94755.09;5065819;28;20838;-73
2021/12/19 09:04:06;;;;;;;8.13;7.30;;;;;;;4.36;53.92;94748.31;5065574;28;20175;-73
2021/12/19 09:06:32;;;;;;;13.90;8.83;;;;;;;4.33;54.96;94753.81;5065552;28;20166;-74
2021/12/19 09:08:57;;;;;;;8.90;8.10;;;;;;;4.42;55.14;94752.06;5065725;28;20274;-73
2021/12/19 09:11:23;;;;;;;9.20;7.87;;;;;;;4.11;56.03;94724.03;5052387;28;20188;-73
2021/12/19 09:13:50;;;;;;;11.83;8.27;;;;;;;4.46;54.81;94738.66;5052739;28;20183;-73
2021/12/19 09:16:16;;;;;;;9.33;7.20;;;;;;;4.86;53.60;94737.22;5065823;28;20171;-73
2021/12/19 09:18:42;;;;;;;10.93;8.30;;;;;;;4.47;54.68;94731.69;5066221;28;20417;-74
2021/12/19 09:21:08;;;;;;;8.90;8.00;;;;;;;4.73;54.31;94726.47;5051873;28;20274;-74
2021/12/19 09:23:34;;;;;;;9.77;8.77;;;;;;;5.13;53.47;94735.34;5049985;28;20431;-74
2021/12/19 09:26:00;;;;;;;13.00;9.47;;;;;;;4.86;54.20;94726.84;5065836;28;20484;-75
2021/12/19 09:28:26;;;;;;;9.33;6.60;;;;;;;4.64;54.63;94724.81;5065531;28;20179;-75
2021/12/19 09:30:51;;;;;;;11.97;8.87;;;;;;;5.16;53.86;94723.84;5065079;28;20398;-73
2021/12/19 09:33:17;;;;;;;9.57;8.17;;;;;;;4.82;54.22;94719.56;5065010;28;20344;-74
2021/12/19 09:35:42;;;;;;;11.47;8.33;;;;;;;4.88;54.86;94709.34;5064706;28;20197;-73
2021/12/19 09:38:09;;;;;;;6.63;5.40;;;;;;;4.91;54.24;94707.41;5064714;28;20167;-73
2021/12/19 09:40:38;;;;;;;9.47;8.47;;;;;;;4.46;55.85;94699.81;5064688;28;20263;-73
2021/12/19 09:43:21;;;;;;;9.43;7.07;;;;;;;5.05;53.86;94699.84;5064797;28;20439;-74
2021/12/19 09:45:52;;;;;;;10.80;9.67;;;;;;;4.80;54.44;94691.19;5064872;28;20393;-74
2021/12/19 09:48:18;;;;;;;10.27;8.23;;;;;;;4.66;54.15;94684.00;5064407;28;20417;-73
2021/12/19 09:50:44;;;;;;;20.80;10.10;;;;;;;5.21;53.03;94677.50;5063455;28;20405;-74
2021/12/19 09:53:09;;;;;;;13.53;9.03;;;;;;;4.91;53.83;94684.88;5064728;28;20182;-73
2021/12/19 09:55:35;;;;;;;11.17;8.87;;;;;;;4.72;54.85;94667.81;5065082;28;20170;-74
2021/12/19 09:58:00;;;;;;;9.47;8.47;;;;;;;4.83;54.53;94662.34;5064617;28;20633;-74
2021/12/19 10:00:26;;;;;;;12.20;8.63;;;;;;;4.94;54.39;94663.03;5064441;28;20190;-73
2021/12/19 10:02:51;;;;;;;11.50;9.40;;;;;;;5.09;54.81;94653.66;5065392;28;20171;-74
2021/12/19 10:05:20;;;;;;;12.33;9.17;;;;;;;4.90;54.90;94641.78;5064671;28;20162;-75
2021/12/19 10:08:06;;;;;;;10.63;8.07;;;;;;;4.66;55.81;94629.56;5064630;28;20284;-73
2021/12/19 10:10:57;;;;;;;10.70;8.57;;;;;;;4.92;55.30;94632.06;5063348;28;20487;-74
2021/12/19 10:13:32;;;;;;;11.73;9.90;;;;;;;4.66;56.40;94634.75;5064860;28;20540;-74
2021/12/19 10:15:58;;;;;;;9.43;7.57;;;;;;;4.78;55.94;94630.91;5063486;28;20472;-74
2021/12/19 10:18:23;;;;;;;10.90;9.07;;;;;;;5.24;55.00;94622.69;5064657;28;20507;-74
2021/12/19 10:20:53;;;;;;;9.60;7.70;;;;;;;5.05;55.11;94616.84;5064792;28;20465;-74
2021/12/19 10:23:24;;;;;;;12.80;10.10;;;;;;;4.99;55.95;94627.88;5065407;28;20190;-75
2021/12/19 10:26:02;;;;;;;14.70;10.70;;;;;;;5.38;54.99;94610.84;5062805;28;20470;-74
2021/12/19 10:28:30;;;;;;;5.90;5.30;;;;;;;5.13;54.93;94603.06;5064714;28;20417;-74
2021/12/19 10:30:57;;;;;;;14.90;11.13;;;;;;;5.44;54.83;94599.81;5063018;28;20412;-74
2021/12/19 10:33:27;;;;;;;9.43;8.40;;;;;;;5.29;54.94;94594.47;5064619;28;20432;-74
2021/12/19 10:35:55;;;;;;;25.60;10.20;;;;;;;5.01;56.03;94594.00;5064849;28;20413;-74
2021/12/19 10:38:29;;;;;;;11.20;8.83;;;;;;;4.98;56.18;94594.31;5064510;28;20421;-73
2021/12/19 10:40:56;;;;;;;17.13;9.37;;;;;;;4.87;56.99;94596.22;5063600;28;20458;-74
2021/12/19 10:43:26;;;;;;;12.10;9.73;;;;;;;5.26;56.00;94594.81;5064437;28;20425;-73
2021/12/19 10:45:55;;;;;;;13.53;7.43;;;;;;;5.32;55.10;94570.81;5058608;28;20413;-73
2021/12/19 10:48:25;;;;;;;10.87;7.40;;;;;;;4.93;56.35;94592.19;5062117;28;20438;-73
2021/12/19 10:51:19;;;;;;;13.63;11.00;;;;;;;4.53;57.12;94587.75;5049525;28;20426;-73
2021/12/19 10:53:54;;;;;;;11.67;9.37;;;;;;;4.83;56.94;94576.78;5060934;28;20433;-74
2021/12/19 10:56:31;;;;;;;11.00;9.37;;;;;;;4.96;56.83;94580.69;5060438;28;20954;-72
2021/12/19 10:58:59;;;;;;;12.33;9.77;;;;;;;4.68;57.42;94568.81;5059793;28;20998;-74
2021/12/19 11:01:35;;;;;;;12.83;7.97;;;;;;;4.83;57.20;94558.63;5054024;28;20429;-86
2021/12/19 11:04:12;;;;;;;12.43;11.03;;;;;;;5.08;56.60;94563.84;5056279;28;20425;-73
2021/12/19 11:06:44;;;;;;;11.50;9.33;;;;;;;5.37;55.93;94560.75;5045887;28;20414;-73
2021/12/19 11:09:11;;;;;;;11.40;10.07;;;;;;;4.92;56.80;94553.47;5053091;28;20463;-73
2021/12/19 11:11:43;;;;;;;3.43;2.47;;;;;;;4.59;57.39;94548.25;5067106;28;20444;-73
2021/12/19 11:14:12;;;;;;;5.90;5.30;;;;;;;4.79;56.89;94543.59;5067178;28;20433;-73
2021/12/19 11:16:37;;;;;;;15.47;10.67;;;;;;;5.23;56.26;94545.84;5067134;28;20409;-73
2021/12/19 11:19:03;;;;;;;14.40;10.00;;;;;;;4.88;56.36;94548.59;5079776;28;21062;-74
2021/12/19 11:21:33;;;;;;;12.10;9.30;;;;;;;5.75;54.64;94539.41;5085933;28;20226;-74
2021/12/19 11:24:04;;;;;;;12.13;9.17;;;;;;;5.18;55.96;94533.38;5047775;28;20262;-73
2021/12/19 11:26:30;;;;;;;13.80;11.23;;;;;;;5.54;54.70;94520.00;5047256;28;20394;-74
2021/12/19 11:28:56;;;;;;;13.17;9.50;;;;;;;5.04;56.62;94521.06;5045873;28;20438;-74
2021/12/19 11:31:24;;;;;;;11.70;9.77;;;;;;;5.37;54.87;94521.00;5047334;28;20202;-74
2021/12/19 11:33:50;;;;;;;11.00;8.40;;;;;;;4.84;56.41;94505.84;5064811;28;20437;-74
2021/12/19 11:36:17;;;;;;;10.80;9.17;;;;;;;4.72;56.75;94525.25;5060581;28;20432;-73
2021/12/19 11:38:44;;;;;;;7.73;6.10;;;;;;;4.19;58.99;94513.53;5065516;28;20251;-74
2021/12/19 11:41:10;;;;;;;16.37;8.60;;;;;;;4.85;56.62;94511.81;5064494;28;20413;-73
2021/12/19 11:43:43;;;;;;;13.90;9.40;;;;;;;4.49;57.65;94514.72;5066510;28;20452;-73
2021/12/19 11:46:19;;;;;;;12.10;9.03;;;;;;;5.30;55.44;94515.69;5054756;28;20177;-73
2021/12/19 11:48:45;;;;;;;12.10;9.27;;;;;;;5.20;55.72;94505.47;5063838;28;20437;-73
2021/12/19 11:51:19;;;;;;;12.53;8.83;;;;;;;4.67;56.68;94502.44;5066582;28;20424;-74
2021/12/19 11:53:45;;;;;;;14.13;10.83;;;;;;;4.99;56.43;94497.38;5066495;28;20432;-72
2021/12/19 11:56:14;;;;;;;12.20;8.47;;;;;;;4.76;57.01;94484.28;5058360;28;20439;-72
2021/12/19 11:58:51;;;;;;;13.00;8.40;;;;;;;4.94;56.33;94484.13;5066131;28;20201;-74
2021/12/19 12:01:19;;;;;;;12.00;8.97;;;;;;;4.98;56.11;94482.81;5045568;28;20406;-73
2021/12/19 12:03:54;;;;;;;13.60;11.10;;;;;;;4.98;56.67;94480.22;5060277;28;20994;-73
2021/12/19 12:06:24;;;;;;;14.30;10.83;;;;;;;5.55;55.35;94477.50;5070108;28;20419;-73
2021/12/19 12:09:12;;;;;;;16.03;10.90;;;;;;;5.42;54.84;94472.03;5065902;28;20417;-73
2021/12/19 12:12:00;;;;;;;13.60;10.17;;;;;;;4.99;56.42;94471.47;5048084;28;20467;-73
2021/12/19 12:14:29;;;;;;;13.80;9.80;;;;;;;5.36;55.25;94462.31;5047046;28;20577;-74
2021/12/19 12:17:01;;;;;;;8.03;7.23;;;;;;;4.92;56.56;94458.34;5046876;28;20915;-74
2021/12/19 12:19:49;;;;;;;13.07;11.00;;;;;;;5.47;55.10;94449.00;5046172;28;20462;-74
2021/12/19 12:22:31;;;;;;;15.40;9.67;;;;;;;4.95;56.83;94454.63;5046582;28;20505;-74
2021/12/19 12:25:02;;;;;;;10.90;9.80;;;;;;;5.15;56.49;94458.47;5062373;28;20417;-73
2021/12/19 12:27:45;;;;;;;9.00;8.17;;;;;;;5.18;56.49;94442.59;5065889;28;20409;-73
2021/12/19 12:30:18;;;;;;;12.23;8.90;;;;;;;4.97;57.02;94431.91;5064714;28;20401;-73